This is the latest recevied weather packets stored in our database for station/object KQ4OSL. If no packets are shown the sender has not sent any weather packets the latest 10 day(s).
| Time | Temp. | Humidity | Pressure | Rain* | Wind** | Luminosity | Snow |
|---|---|---|---|---|---|---|---|
| 1788033404 | 31.11° C | 71% | 1021.7 hPa | 0 mm | - | 546 W/m² | - |
| 1788033099 | 31.11° C | 68% | 1021.7 hPa | 0 mm | - | 541 W/m² | - |
| 1788032799 | 31.11° C | 70% | 1021.6 hPa | 0 mm | - | 553 W/m² | - |
| 1788032494 | 30.56° C | 72% | 1021.7 hPa | 0 mm | - | 554 W/m² | - |
| 1788032190 | 31.11° C | 70% | 1021.7 hPa | 0 mm | - | 582 W/m² | - |
| 1788031886 | 31.11° C | 71% | 1021.9 hPa | 0 mm | - | 590 W/m² | - |
| 1788031586 | 30.56° C | 74% | 1021.8 hPa | 0 mm | - | 596 W/m² | - |
| 1788031285 | 30.56° C | 68% | 1022 hPa | 0 mm | - | 606 W/m² | - |
| 1788030985 | 30.56° C | 71% | 1022.1 hPa | 0 mm | - | 618 W/m² | - |
| 1788030684 | 31.11° C | 71% | 1022.2 hPa | 0 mm | - | 617 W/m² | - |
| 1788030379 | 30° C | 76% | 1022.3 hPa | 0 mm | - | 635 W/m² | - |
| 1788030075 | 30° C | 73% | 1022.4 hPa | 0 mm | - | 643 W/m² | - |
| 1788029774 | 30° C | 71% | 1022.3 hPa | 0 mm | - | 656 W/m² | - |
| 1788029469 | 30° C | 73% | 1022.3 hPa | 0 mm | - | 660 W/m² | - |
| 1788029169 | 29.44° C | 74% | 1022.5 hPa | 0 mm | - | 677 W/m² | - |
| 1788028869 | 30° C | 75% | 1022.6 hPa | 0 mm | - | 704 W/m² | - |
| 1788028563 | 29.44° C | 74% | 1022.5 hPa | 0 mm | - | 685 W/m² | - |
| 1788028258 | 29.44° C | 76% | 1022.8 hPa | 0 mm | - | 691 W/m² | - |
| 1788027955 | 28.89° C | 77% | 1022.7 hPa | 0 mm | - | 692 W/m² | - |
| 1788027654 | 29.44° C | 75% | 1023 hPa | 0 mm | - | 727 W/m² | - |
| 1788027350 | 28.89° C | 75% | 1022.8 hPa | 0 mm | - | 371 W/m² | - |
| 1788027049 | 28.89° C | 80% | 1023.1 hPa | 0 mm | - | 720 W/m² | - |
| 1788026750 | 28.89° C | 80% | 1023.1 hPa | 0 mm | - | 622 W/m² | - |
| 1788026446 | 29.44° C | 79% | 1023.2 hPa | 0 mm | - | 753 W/m² | - |
| 1788026145 | 29.44° C | 78% | 1023 hPa | 0 mm | - | 751 W/m² | - |
* Rain latest hour (hover to see other rain measurements)
** Current wind speed in m/s (hover to see current wind gust speed)